Altus, OK (73521)

4:02 AM CDT on August 30, 2016 (GMT -0500)
Airplane Park | | Change Station

Elev 1391 ft 34.64 °N, 99.32 °W | Updated 27 seconds ago

Clear
Clear
75.6 °F
Feels Like 76 °F
N
1.1
Wind Variable Wind from NNE
Gusts 2.5 mph

Today
High -- | Low -- °F
--% Chance of Precip.
Yesterday
High -- | Low -- °F
Precip. -- in
Pressure 30.06 in
Visibility 10.0 miles
Clouds Clear
Heat Index 76 °F
Dew Point 70 °F
Humidity 83%
Rainfall 0.00 in
Snow Depth Not available.
7:09 AM 8:05 PM
Waning Crescent, 4% visible
METAR KLTS 300858Z AUTO 04005KT 10SM CLR 21/19 A3010 RMK AO2 SLP177 T02090188 57004
Pressure 30.06 in
Visibility 10.0 miles
Clouds Clear
Heat Index 76 °F
Dew Point 70 °F
Humidity 83%
Rainfall 0.00 in
Snow Depth Not available.
7:09 AM 8:05 PM
Waning Crescent, 4% visible
METAR KLTS 300858Z AUTO 04005KT 10SM CLR 21/19 A3010 RMK AO2 SLP177 T02090188 57004

10-Day Weather Forecast

Almanac

Astronomy

Aug. 30, 2016 Rise Set
Actual Time
Civil Twilight
Nautical Twilight
Astronomical Twilight
Moon
Length of Visible Light
Length of Day
Tomorrow will be .
, % of the Moon is Illuminated

Today's Extremes

State Highs State Lows

Community

WunderPhotos

Upload Photos

1,935,795 photos uploaded!

WunderBlog® & News

Nearby

Air Quality

  Air Quality AQ Index Pollutant
Not available.

Snow Depth

Station Depth Elevation

Earthquake Activity

City Distance Mag. Time & Date
Minimum magnitude displayed is 2.5.

Coastal Water Temperatures

Place Temperature

Stations

Nearby Weather Stations

Station Location Temp. Windchill Dew Point Humidity Wind Precip. Elev Updated Type
                   

Watches & Warnings

There are currently no watches in effect.